sensor_id;sensor_type;location;lat;lon;timestamp;temperature;humidity
32534;DHT22;18973;48.580;8.912;2023-03-01T00:01:08;-0.20;99.90
32534;DHT22;18973;48.580;8.912;2023-03-01T00:03:35;-0.10;99.90
32534;DHT22;18973;48.580;8.912;2023-03-01T00:06:01;-0.10;99.90
32534;DHT22;18973;48.580;8.912;2023-03-01T00:08:27;-0.10;99.90
32534;DHT22;18973;48.580;8.912;2023-03-01T00:11:18;-0.20;99.90
32534;DHT22;18973;48.580;8.912;2023-03-01T00:13:45;-0.20;99.90
32534;DHT22;18973;48.580;8.912;2023-03-01T00:16:14;-0.10;99.90
32534;DHT22;18973;48.580;8.912;2023-03-01T00:18:41;-0.20;99.90
32534;DHT22;18973;48.580;8.912;2023-03-01T00:21:07;-0.30;99.90
32534;DHT22;18973;48.580;8.912;2023-03-01T00:23:37;-0.30;99.90
32534;DHT22;18973;48.580;8.912;2023-03-01T00:26:07;-0.30;99.90
32534;DHT22;18973;48.580;8.912;2023-03-01T00:28:33;-0.30;99.90
32534;DHT22;18973;48.580;8.912;2023-03-01T00:31:13;-0.20;99.90
32534;DHT22;18973;48.580;8.912;2023-03-01T00:33:40;-0.30;99.90
32534;DHT22;18973;48.580;8.912;2023-03-01T00:36:06;-0.30;99.90
32534;DHT22;18973;48.580;8.912;2023-03-01T00:38:44;-0.40;99.90
32534;DHT22;18973;48.580;8.912;2023-03-01T00:41:14;-0.40;99.90
32534;DHT22;18973;48.580;8.912;2023-03-01T00:43:40;-0.30;99.90
32534;DHT22;18973;48.580;8.912;2023-03-01T00:46:25;-0.40;99.90
32534;DHT22;18973;48.580;8.912;2023-03-01T00:48:52;-0.40;99.90
32534;DHT22;18973;48.580;8.912;2023-03-01T00:51:19;-0.30;99.90
32534;DHT22;18973;48.580;8.912;2023-03-01T00:53:46;-0.30;99.90
32534;DHT22;18973;48.580;8.912;2023-03-01T00:56:14;-0.40;99.90
32534;DHT22;18973;48.580;8.912;2023-03-01T00:58:40;-0.40;99.90
32534;DHT22;18973;48.580;8.912;2023-03-01T01:01:20;-0.40;99.90
32534;DHT22;18973;48.580;8.912;2023-03-01T01:03:51;-0.40;99.90
32534;DHT22;18973;48.580;8.912;2023-03-01T01:06:25;-0.40;99.90
32534;DHT22;18973;48.580;8.912;2023-03-01T01:08:52;-0.40;99.90
32534;DHT22;18973;48.580;8.912;2023-03-01T01:11:19;-0.50;99.90
32534;DHT22;18973;48.580;8.912;2023-03-01T01:13:46;-0.50;99.90
32534;DHT22;18973;48.580;8.912;2023-03-01T01:16:13;-0.50;99.90
32534;DHT22;18973;48.580;8.912;2023-03-01T01:18:39;-0.60;99.90
32534;DHT22;18973;48.580;8.912;2023-03-01T01:21:08;-0.60;99.90
32534;DHT22;18973;48.580;8.912;2023-03-01T01:23:34;-0.60;99.90
32534;DHT22;18973;48.580;8.912;2023-03-01T01:26:05;-0.60;99.90
32534;DHT22;18973;48.580;8.912;2023-03-01T01:28:31;-0.70;99.90
32534;DHT22;18973;48.580;8.912;2023-03-01T01:30:57;-0.60;99.90
32534;DHT22;18973;48.580;8.912;2023-03-01T01:33:23;-0.70;99.90
32534;DHT22;18973;48.580;8.912;2023-03-01T01:35:48;-0.70;99.90
32534;DHT22;18973;48.580;8.912;2023-03-01T01:38:14;-0.70;99.90
32534;DHT22;18973;48.580;8.912;2023-03-01T01:40:47;-0.70;99.90
32534;DHT22;18973;48.580;8.912;2023-03-01T01:43:25;-0.70;99.90
32534;DHT22;18973;48.580;8.912;2023-03-01T01:45:55;-0.80;99.90
32534;DHT22;18973;48.580;8.912;2023-03-01T01:48:46;-0.80;99.90
32534;DHT22;18973;48.580;8.912;2023-03-01T01:51:17;-0.70;99.90
32534;DHT22;18973;48.580;8.912;2023-03-01T01:53:46;-0.70;99.90
32534;DHT22;18973;48.580;8.912;2023-03-01T01:56:15;-0.80;99.90
32534;DHT22;18973;48.580;8.912;2023-03-01T01:58:42;-0.80;99.90
32534;DHT22;18973;48.580;8.912;2023-03-01T02:01:08;-0.90;99.90
32534;DHT22;18973;48.580;8.912;2023-03-01T02:03:36;-0.90;99.90
32534;DHT22;18973;48.580;8.912;2023-03-01T02:06:13;-1.00;99.90
32534;DHT22;18973;48.580;8.912;2023-03-01T02:08:42;-1.10;99.90
32534;DHT22;18973;48.580;8.912;2023-03-01T02:11:10;-1.10;99.90
32534;DHT22;18973;48.580;8.912;2023-03-01T02:13:36;-1.10;99.90
32534;DHT22;18973;48.580;8.912;2023-03-01T02:16:04;-1.10;99.90
32534;DHT22;18973;48.580;8.912;2023-03-01T02:18:30;-1.10;99.90
32534;DHT22;18973;48.580;8.912;2023-03-01T02:23:25;-1.10;99.90
32534;DHT22;18973;48.580;8.912;2023-03-01T02:28:33;-1.20;99.90
32534;DHT22;18973;48.580;8.912;2023-03-01T02:30:59;-1.10;99.90
32534;DHT22;18973;48.580;8.912;2023-03-01T02:33:45;-1.20;99.90
32534;DHT22;18973;48.580;8.912;2023-03-01T02:36:18;-1.10;99.90
32534;DHT22;18973;48.580;8.912;2023-03-01T02:38:45;-1.10;99.90
32534;DHT22;18973;48.580;8.912;2023-03-01T02:41:15;-1.10;99.90
32534;DHT22;18973;48.580;8.912;2023-03-01T02:43:41;-1.00;99.90
32534;DHT22;18973;48.580;8.912;2023-03-01T02:46:15;-1.00;99.90
32534;DHT22;18973;48.580;8.912;2023-03-01T02:48:49;-1.00;99.90
32534;DHT22;18973;48.580;8.912;2023-03-01T02:51:34;-1.00;99.90
32534;DHT22;18973;48.580;8.912;2023-03-01T02:56:29;-1.00;99.90
32534;DHT22;18973;48.580;8.912;2023-03-01T02:58:55;-1.10;99.90
32534;DHT22;18973;48.580;8.912;2023-03-01T03:01:26;-1.10;99.90
32534;DHT22;18973;48.580;8.912;2023-03-01T03:04:05;-1.10;99.90
32534;DHT22;18973;48.580;8.912;2023-03-01T03:06:32;-1.00;99.90
32534;DHT22;18973;48.580;8.912;2023-03-01T03:08:58;-1.00;99.90
32534;DHT22;18973;48.580;8.912;2023-03-01T03:11:24;-1.00;99.90
32534;DHT22;18973;48.580;8.912;2023-03-01T03:13:50;-0.90;99.90
32534;DHT22;18973;48.580;8.912;2023-03-01T03:16:16;-1.00;99.90
32534;DHT22;18973;48.580;8.912;2023-03-01T03:18:42;-0.90;99.90
32534;DHT22;18973;48.580;8.912;2023-03-01T03:21:12;-1.00;99.90
32534;DHT22;18973;48.580;8.912;2023-03-01T03:23:38;-1.00;99.90
32534;DHT22;18973;48.580;8.912;2023-03-01T03:26:04;-0.90;99.90
32534;DHT22;18973;48.580;8.912;2023-03-01T03:28:31;-0.90;99.90
32534;DHT22;18973;48.580;8.912;2023-03-01T03:30:57;-0.90;99.90
32534;DHT22;18973;48.580;8.912;2023-03-01T03:33:24;-0.90;99.90
32534;DHT22;18973;48.580;8.912;2023-03-01T03:35:50;-0.90;99.90
32534;DHT22;18973;48.580;8.912;2023-03-01T03:38:18;-0.90;99.90
32534;DHT22;18973;48.580;8.912;2023-03-01T03:41:03;-0.90;99.90
32534;DHT22;18973;48.580;8.912;2023-03-01T03:43:31;-0.80;99.90
32534;DHT22;18973;48.580;8.912;2023-03-01T03:45:57;-0.70;99.90
32534;DHT22;18973;48.580;8.912;2023-03-01T03:48:24;-0.70;99.90
32534;DHT22;18973;48.580;8.912;2023-03-01T03:50:52;-0.70;99.90
32534;DHT22;18973;48.580;8.912;2023-03-01T03:53:18;-0.70;99.90
32534;DHT22;18973;48.580;8.912;2023-03-01T03:55:44;-0.60;99.90
32534;DHT22;18973;48.580;8.912;2023-03-01T03:58:11;-0.60;99.90
32534;DHT22;18973;48.580;8.912;2023-03-01T04:00:38;-0.60;99.90
32534;DHT22;18973;48.580;8.912;2023-03-01T04:03:04;-0.70;99.90
32534;DHT22;18973;48.580;8.912;2023-03-01T04:05:31;-0.70;99.90
32534;DHT22;18973;48.580;8.912;2023-03-01T04:07:57;-0.70;99.90
32534;DHT22;18973;48.580;8.912;2023-03-01T04:10:36;-0.70;99.90
32534;DHT22;18973;48.580;8.912;2023-03-01T04:13:03;-0.70;99.90
32534;DHT22;18973;48.580;8.912;2023-03-01T04:15:30;-0.70;99.90
32534;DHT22;18973;48.580;8.912;2023-03-01T04:17:56;-0.70;99.90
32534;DHT22;18973;48.580;8.912;2023-03-01T04:20:23;-0.70;99.90
32534;DHT22;18973;48.580;8.912;2023-03-01T04:23:04;-0.70;99.90
32534;DHT22;18973;48.580;8.912;2023-03-01T04:25:42;-0.80;99.90
32534;DHT22;18973;48.580;8.912;2023-03-01T04:28:10;-0.80;99.90
32534;DHT22;18973;48.580;8.912;2023-03-01T04:30:37;-0.80;99.90
32534;DHT22;18973;48.580;8.912;2023-03-01T04:33:08;-0.70;99.90
32534;DHT22;18973;48.580;8.912;2023-03-01T04:35:34;-0.70;99.90
32534;DHT22;18973;48.580;8.912;2023-03-01T04:38:00;-0.70;99.90
32534;DHT22;18973;48.580;8.912;2023-03-01T04:40:26;-0.70;99.90
32534;DHT22;18973;48.580;8.912;2023-03-01T04:42:51;-0.60;99.90
32534;DHT22;18973;48.580;8.912;2023-03-01T04:45:17;-0.60;99.90
32534;DHT22;18973;48.580;8.912;2023-03-01T04:47:45;-0.70;99.90
32534;DHT22;18973;48.580;8.912;2023-03-01T04:50:13;-0.60;99.90
32534;DHT22;18973;48.580;8.912;2023-03-01T04:52:39;-0.60;99.90
32534;DHT22;18973;48.580;8.912;2023-03-01T04:55:06;-0.60;99.90
32534;DHT22;18973;48.580;8.912;2023-03-01T04:57:33;-0.50;99.90
32534;DHT22;18973;48.580;8.912;2023-03-01T04:59:58;-0.40;99.90
32534;DHT22;18973;48.580;8.912;2023-03-01T05:02:24;-0.50;99.90
32534;DHT22;18973;48.580;8.912;2023-03-01T05:04:50;-0.50;99.90
32534;DHT22;18973;48.580;8.912;2023-03-01T05:07:15;-0.40;99.90
32534;DHT22;18973;48.580;8.912;2023-03-01T05:09:46;-0.50;99.90
32534;DHT22;18973;48.580;8.912;2023-03-01T05:12:13;-0.40;99.90
32534;DHT22;18973;48.580;8.912;2023-03-01T05:14:39;-0.40;99.90
32534;DHT22;18973;48.580;8.912;2023-03-01T05:17:04;-0.40;99.90
32534;DHT22;18973;48.580;8.912;2023-03-01T05:19:31;-0.40;99.90
32534;DHT22;18973;48.580;8.912;2023-03-01T05:21:59;-0.50;99.90
32534;DHT22;18973;48.580;8.912;2023-03-01T05:24:31;-0.50;99.90
32534;DHT22;18973;48.580;8.912;2023-03-01T05:26:58;-0.50;99.90
32534;DHT22;18973;48.580;8.912;2023-03-01T05:29:26;-0.40;99.90
32534;DHT22;18973;48.580;8.912;2023-03-01T05:31:54;-0.40;99.90
32534;DHT22;18973;48.580;8.912;2023-03-01T05:34:24;-0.50;99.90
32534;DHT22;18973;48.580;8.912;2023-03-01T05:36:51;-0.40;99.90
32534;DHT22;18973;48.580;8.912;2023-03-01T05:39:23;-0.40;99.90
32534;DHT22;18973;48.580;8.912;2023-03-01T05:41:56;-0.30;99.90
32534;DHT22;18973;48.580;8.912;2023-03-01T05:44:22;-0.40;99.90
32534;DHT22;18973;48.580;8.912;2023-03-01T05:46:47;-0.40;99.90
32534;DHT22;18973;48.580;8.912;2023-03-01T05:49:13;-0.40;99.90
32534;DHT22;18973;48.580;8.912;2023-03-01T05:51:46;-0.40;99.90
32534;DHT22;18973;48.580;8.912;2023-03-01T05:54:12;-0.40;99.90
32534;DHT22;18973;48.580;8.912;2023-03-01T05:56:38;-0.30;99.90
32534;DHT22;18973;48.580;8.912;2023-03-01T05:59:04;-0.30;99.90
32534;DHT22;18973;48.580;8.912;2023-03-01T06:01:31;-0.30;99.90
32534;DHT22;18973;48.580;8.912;2023-03-01T06:03:57;-0.20;99.90
32534;DHT22;18973;48.580;8.912;2023-03-01T06:06:23;-0.10;99.90
32534;DHT22;18973;48.580;8.912;2023-03-01T06:08:49;0.00;99.90
32534;DHT22;18973;48.580;8.912;2023-03-01T06:11:15;0.10;99.90
32534;DHT22;18973;48.580;8.912;2023-03-01T06:13:42;0.10;99.90
32534;DHT22;18973;48.580;8.912;2023-03-01T06:16:08;0.20;99.90
32534;DHT22;18973;48.580;8.912;2023-03-01T06:18:34;0.10;99.90
32534;DHT22;18973;48.580;8.912;2023-03-01T06:21:00;0.20;99.90
32534;DHT22;18973;48.580;8.912;2023-03-01T06:23:26;0.10;99.90
32534;DHT22;18973;48.580;8.912;2023-03-01T06:25:52;0.20;99.90
32534;DHT22;18973;48.580;8.912;2023-03-01T06:28:18;0.20;99.90
32534;DHT22;18973;48.580;8.912;2023-03-01T06:30:44;0.30;99.90
32534;DHT22;18973;48.580;8.912;2023-03-01T06:33:10;0.30;99.90
32534;DHT22;18973;48.580;8.912;2023-03-01T06:35:35;0.30;99.90
32534;DHT22;18973;48.580;8.912;2023-03-01T06:38:03;0.30;99.90
32534;DHT22;18973;48.580;8.912;2023-03-01T06:40:29;0.20;99.90
32534;DHT22;18973;48.580;8.912;2023-03-01T06:42:57;0.20;99.90
32534;DHT22;18973;48.580;8.912;2023-03-01T06:45:23;0.30;99.90
32534;DHT22;18973;48.580;8.912;2023-03-01T06:47:49;0.30;99.90
32534;DHT22;18973;48.580;8.912;2023-03-01T06:50:16;0.50;99.90
32534;DHT22;18973;48.580;8.912;2023-03-01T06:52:42;0.50;99.90
32534;DHT22;18973;48.580;8.912;2023-03-01T06:55:10;0.50;99.90
32534;DHT22;18973;48.580;8.912;2023-03-01T06:57:36;0.70;99.90
32534;DHT22;18973;48.580;8.912;2023-03-01T07:00:03;0.80;99.90
32534;DHT22;18973;48.580;8.912;2023-03-01T07:02:29;0.80;99.90
32534;DHT22;18973;48.580;8.912;2023-03-01T07:04:55;0.80;99.90
32534;DHT22;18973;48.580;8.912;2023-03-01T07:07:21;0.90;99.90
32534;DHT22;18973;48.580;8.912;2023-03-01T07:09:46;0.90;99.90
32534;DHT22;18973;48.580;8.912;2023-03-01T07:12:13;0.90;99.90
32534;DHT22;18973;48.580;8.912;2023-03-01T07:14:39;0.70;99.90
32534;DHT22;18973;48.580;8.912;2023-03-01T07:17:05;0.80;99.90
32534;DHT22;18973;48.580;8.912;2023-03-01T07:19:31;0.70;99.90
32534;DHT22;18973;48.580;8.912;2023-03-01T07:21:56;0.80;99.90
32534;DHT22;18973;48.580;8.912;2023-03-01T07:24:22;0.70;99.90
32534;DHT22;18973;48.580;8.912;2023-03-01T07:26:49;0.90;99.90
32534;DHT22;18973;48.580;8.912;2023-03-01T07:29:15;0.80;99.90
32534;DHT22;18973;48.580;8.912;2023-03-01T07:31:41;1.00;99.90
32534;DHT22;18973;48.580;8.912;2023-03-01T07:34:07;1.20;99.90
32534;DHT22;18973;48.580;8.912;2023-03-01T07:36:32;1.30;99.90
32534;DHT22;18973;48.580;8.912;2023-03-01T07:38:58;1.30;99.90
32534;DHT22;18973;48.580;8.912;2023-03-01T07:41:24;1.40;99.90
32534;DHT22;18973;48.580;8.912;2023-03-01T07:43:50;1.50;99.90
32534;DHT22;18973;48.580;8.912;2023-03-01T07:46:15;1.50;99.90
32534;DHT22;18973;48.580;8.912;2023-03-01T07:48:41;1.70;99.90
32534;DHT22;18973;48.580;8.912;2023-03-01T07:51:07;2.30;99.90
32534;DHT22;18973;48.580;8.912;2023-03-01T07:53:33;2.90;99.90
32534;DHT22;18973;48.580;8.912;2023-03-01T07:56:03;3.70;99.90
32534;DHT22;18973;48.580;8.912;2023-03-01T07:58:29;4.50;99.90
32534;DHT22;18973;48.580;8.912;2023-03-01T08:00:55;4.70;99.20
32534;DHT22;18973;48.580;8.912;2023-03-01T08:03:21;4.90;96.40
32534;DHT22;18973;48.580;8.912;2023-03-01T08:05:46;4.70;97.70
32534;DHT22;18973;48.580;8.912;2023-03-01T08:08:12;4.60;96.40
32534;DHT22;18973;48.580;8.912;2023-03-01T08:10:37;4.50;97.30
32534;DHT22;18973;48.580;8.912;2023-03-01T08:13:03;4.70;96.10
32534;DHT22;18973;48.580;8.912;2023-03-01T08:15:29;5.10;95.80
32534;DHT22;18973;48.580;8.912;2023-03-01T08:17:55;4.70;94.60
32534;DHT22;18973;48.580;8.912;2023-03-01T08:20:20;4.40;95.80
32534;DHT22;18973;48.580;8.912;2023-03-01T08:22:46;4.50;95.20
32534;DHT22;18973;48.580;8.912;2023-03-01T08:25:11;4.40;95.60
32534;DHT22;18973;48.580;8.912;2023-03-01T08:27:37;4.00;96.10
32534;DHT22;18973;48.580;8.912;2023-03-01T08:30:04;4.20;96.90
32534;DHT22;18973;48.580;8.912;2023-03-01T08:32:36;4.50;96.30
32534;DHT22;18973;48.580;8.912;2023-03-01T08:35:01;5.10;95.80
32534;DHT22;18973;48.580;8.912;2023-03-01T08:37:27;5.50;93.60
32534;DHT22;18973;48.580;8.912;2023-03-01T08:39:56;5.50;92.40
32534;DHT22;18973;48.580;8.912;2023-03-01T08:42:22;4.50;94.20
32534;DHT22;18973;48.580;8.912;2023-03-01T08:44:47;4.70;94.30
32534;DHT22;18973;48.580;8.912;2023-03-01T08:47:14;5.00;93.20
32534;DHT22;18973;48.580;8.912;2023-03-01T08:49:39;5.20;93.20
32534;DHT22;18973;48.580;8.912;2023-03-01T08:52:05;5.30;93.30
32534;DHT22;18973;48.580;8.912;2023-03-01T08:54:31;5.50;92.30
32534;DHT22;18973;48.580;8.912;2023-03-01T08:56:56;5.70;92.20
32534;DHT22;18973;48.580;8.912;2023-03-01T08:59:25;5.30;92.20
32534;DHT22;18973;48.580;8.912;2023-03-01T09:01:51;5.10;92.20
32534;DHT22;18973;48.580;8.912;2023-03-01T09:04:17;4.90;92.20
32534;DHT22;18973;48.580;8.912;2023-03-01T09:06:43;4.90;92.90
32534;DHT22;18973;48.580;8.912;2023-03-01T09:09:14;5.00;92.80
32534;DHT22;18973;48.580;8.912;2023-03-01T09:11:44;5.30;91.80
32534;DHT22;18973;48.580;8.912;2023-03-01T09:14:12;5.50;92.10
32534;DHT22;18973;48.580;8.912;2023-03-01T09:16:38;5.50;92.30
32534;DHT22;18973;48.580;8.912;2023-03-01T09:19:05;5.90;91.40
32534;DHT22;18973;48.580;8.912;2023-03-01T09:21:31;5.80;90.60
32534;DHT22;18973;48.580;8.912;2023-03-01T09:23:57;5.10;91.00
32534;DHT22;18973;48.580;8.912;2023-03-01T09:26:23;4.90;92.40
32534;DHT22;18973;48.580;8.912;2023-03-01T09:28:51;5.20;91.90
32534;DHT22;18973;48.580;8.912;2023-03-01T09:31:19;5.50;91.80
32534;DHT22;18973;48.580;8.912;2023-03-01T09:33:47;5.50;90.90
32534;DHT22;18973;48.580;8.912;2023-03-01T09:36:18;5.60;90.40
32534;DHT22;18973;48.580;8.912;2023-03-01T09:38:45;5.40;91.00
32534;DHT22;18973;48.580;8.912;2023-03-01T09:44:15;5.60;90.60
32534;DHT22;18973;48.580;8.912;2023-03-01T09:46:43;5.50;90.10
32534;DHT22;18973;48.580;8.912;2023-03-01T09:49:22;5.40;90.40
32534;DHT22;18973;48.580;8.912;2023-03-01T09:54:50;5.20;91.50
32534;DHT22;18973;48.580;8.912;2023-03-01T09:57:26;5.40;91.20
32534;DHT22;18973;48.580;8.912;2023-03-01T10:06:21;5.70;89.90
32534;DHT22;18973;48.580;8.912;2023-03-01T10:08:56;5.60;88.90
32534;DHT22;18973;48.580;8.912;2023-03-01T10:11:31;4.90;91.00
32534;DHT22;18973;48.580;8.912;2023-03-01T10:16:52;5.30;90.70
32534;DHT22;18973;48.580;8.912;2023-03-01T10:19:30;5.50;90.20
32534;DHT22;18973;48.580;8.912;2023-03-01T10:22:04;5.50;89.70
32534;DHT22;18973;48.580;8.912;2023-03-01T10:24:35;5.70;91.40
32534;DHT22;18973;48.580;8.912;2023-03-01T10:29:49;6.80;86.40
32534;DHT22;18973;48.580;8.912;2023-03-01T10:32:18;7.00;89.40
32534;DHT22;18973;48.580;8.912;2023-03-01T10:34:44;7.30;89.30
32534;DHT22;18973;48.580;8.912;2023-03-01T10:37:18;7.40;85.20
32534;DHT22;18973;48.580;8.912;2023-03-01T10:40:04;7.60;82.30
32534;DHT22;18973;48.580;8.912;2023-03-01T10:42:39;7.60;82.60
32534;DHT22;18973;48.580;8.912;2023-03-01T10:45:38;7.80;79.40
32534;DHT22;18973;48.580;8.912;2023-03-01T10:48:15;7.20;79.70
32534;DHT22;18973;48.580;8.912;2023-03-01T10:50:46;6.90;83.20
32534;DHT22;18973;48.580;8.912;2023-03-01T10:56:04;7.50;78.80
32534;DHT22;18973;48.580;8.912;2023-03-01T10:58:32;7.50;80.60
32534;DHT22;18973;48.580;8.912;2023-03-01T11:01:01;7.60;80.00
32534;DHT22;18973;48.580;8.912;2023-03-01T11:03:30;7.40;79.40
32534;DHT22;18973;48.580;8.912;2023-03-01T11:05:59;7.30;79.10
32534;DHT22;18973;48.580;8.912;2023-03-01T11:08:32;7.30;81.50
32534;DHT22;18973;48.580;8.912;2023-03-01T11:11:29;7.40;82.30
32534;DHT22;18973;48.580;8.912;2023-03-01T11:19:16;8.00;79.10
32534;DHT22;18973;48.580;8.912;2023-03-01T11:22:19;8.20;78.30
32534;DHT22;18973;48.580;8.912;2023-03-01T11:24:54;7.20;78.30
32534;DHT22;18973;48.580;8.912;2023-03-01T11:27:30;7.20;81.20
32534;DHT22;18973;48.580;8.912;2023-03-01T11:30:07;7.50;79.70
32534;DHT22;18973;48.580;8.912;2023-03-01T11:32:47;7.80;79.00
32534;DHT22;18973;48.580;8.912;2023-03-01T11:35:22;7.40;91.60
32534;DHT22;18973;48.580;8.912;2023-03-01T11:38:04;8.40;99.90
32534;DHT22;18973;48.580;8.912;2023-03-01T11:40:39;8.20;80.80
32534;DHT22;18973;48.580;8.912;2023-03-01T11:51:50;7.20;82.10
32534;DHT22;18973;48.580;8.912;2023-03-01T11:57:49;7.60;79.70
32534;DHT22;18973;48.580;8.912;2023-03-01T12:08:37;7.00;80.20
32534;DHT22;18973;48.580;8.912;2023-03-01T12:17:11;7.40;79.30
32534;DHT22;18973;48.580;8.912;2023-03-01T12:20:19;7.50;78.70
32534;DHT22;18973;48.580;8.912;2023-03-01T12:25:46;7.30;79.40
32534;DHT22;18973;48.580;8.912;2023-03-01T12:42:36;8.10;77.20
32534;DHT22;18973;48.580;8.912;2023-03-01T12:50:41;8.30;77.00
32534;DHT22;18973;48.580;8.912;2023-03-01T12:53:23;8.30;78.80
32534;DHT22;18973;48.580;8.912;2023-03-01T12:55:51;8.30;74.90
32534;DHT22;18973;48.580;8.912;2023-03-01T13:04:27;7.80;76.40
32534;DHT22;18973;48.580;8.912;2023-03-01T13:10:16;7.70;76.60
32534;DHT22;18973;48.580;8.912;2023-03-01T13:17:50;7.90;76.10
32534;DHT22;18973;48.580;8.912;2023-03-01T13:20:18;7.90;76.10
32534;DHT22;18973;48.580;8.912;2023-03-01T13:22:46;7.70;75.80
32534;DHT22;18973;48.580;8.912;2023-03-01T13:25:17;7.60;76.90
32534;DHT22;18973;48.580;8.912;2023-03-01T13:27:44;7.70;77.80
32534;DHT22;18973;48.580;8.912;2023-03-01T13:35:54;8.00;75.60
32534;DHT22;18973;48.580;8.912;2023-03-01T13:38:44;8.30;75.60
32534;DHT22;18973;48.580;8.912;2023-03-01T13:41:12;8.70;76.20
32534;DHT22;18973;48.580;8.912;2023-03-01T13:43:40;8.70;72.80
32534;DHT22;18973;48.580;8.912;2023-03-01T13:46:20;8.60;72.70
32534;DHT22;18973;48.580;8.912;2023-03-01T13:48:50;8.70;73.40
32534;DHT22;18973;48.580;8.912;2023-03-01T13:51:25;8.80;73.00
32534;DHT22;18973;48.580;8.912;2023-03-01T13:53:52;8.90;72.40
32534;DHT22;18973;48.580;8.912;2023-03-01T13:56:26;8.80;71.60
32534;DHT22;18973;48.580;8.912;2023-03-01T13:59:02;8.50;73.00
32534;DHT22;18973;48.580;8.912;2023-03-01T14:01:35;8.50;73.00
32534;DHT22;18973;48.580;8.912;2023-03-01T14:04:02;8.50;73.50
32534;DHT22;18973;48.580;8.912;2023-03-01T14:06:30;8.60;73.40
32534;DHT22;18973;48.580;8.912;2023-03-01T14:09:18;8.60;73.80
32534;DHT22;18973;48.580;8.912;2023-03-01T14:17:36;8.00;73.80
32534;DHT22;18973;48.580;8.912;2023-03-01T14:20:12;8.20;73.80
32534;DHT22;18973;48.580;8.912;2023-03-01T14:22:40;8.40;74.20
32534;DHT22;18973;48.580;8.912;2023-03-01T14:27:45;8.40;72.60
32534;DHT22;18973;48.580;8.912;2023-03-01T14:30:21;8.00;74.00
32534;DHT22;18973;48.580;8.912;2023-03-01T14:32:56;8.10;74.70
32534;DHT22;18973;48.580;8.912;2023-03-01T14:35:28;8.10;74.60
32534;DHT22;18973;48.580;8.912;2023-03-01T14:37:54;8.30;74.30
32534;DHT22;18973;48.580;8.912;2023-03-01T14:40:23;8.30;74.70
32534;DHT22;18973;48.580;8.912;2023-03-01T14:42:50;8.10;73.50
32534;DHT22;18973;48.580;8.912;2023-03-01T14:45:16;7.80;74.90
32534;DHT22;18973;48.580;8.912;2023-03-01T14:47:44;8.00;75.10
32534;DHT22;18973;48.580;8.912;2023-03-01T14:52:53;8.00;74.70
32534;DHT22;18973;48.580;8.912;2023-03-01T14:55:24;8.00;75.20
32534;DHT22;18973;48.580;8.912;2023-03-01T14:57:52;8.00;75.90
32534;DHT22;18973;48.580;8.912;2023-03-01T15:02:49;8.20;75.70
32534;DHT22;18973;48.580;8.912;2023-03-01T15:05:18;8.20;73.70
32534;DHT22;18973;48.580;8.912;2023-03-01T15:07:45;8.30;74.10
32534;DHT22;18973;48.580;8.912;2023-03-01T15:10:24;8.40;74.40
32534;DHT22;18973;48.580;8.912;2023-03-01T15:12:50;8.40;74.60
32534;DHT22;18973;48.580;8.912;2023-03-01T15:15:37;8.50;74.30
32534;DHT22;18973;48.580;8.912;2023-03-01T15:18:16;8.40;74.60
32534;DHT22;18973;48.580;8.912;2023-03-01T15:20:42;8.20;74.10
32534;DHT22;18973;48.580;8.912;2023-03-01T15:23:21;8.00;75.00
32534;DHT22;18973;48.580;8.912;2023-03-01T15:25:49;7.80;75.20
32534;DHT22;18973;48.580;8.912;2023-03-01T15:28:27;7.50;76.00
32534;DHT22;18973;48.580;8.912;2023-03-01T15:31:00;7.50;76.80
32534;DHT22;18973;48.580;8.912;2023-03-01T15:33:36;7.40;76.60
32534;DHT22;18973;48.580;8.912;2023-03-01T15:38:59;7.50;77.30
32534;DHT22;18973;48.580;8.912;2023-03-01T15:41:31;7.50;76.70
32534;DHT22;18973;48.580;8.912;2023-03-01T15:44:23;7.40;77.20
32534;DHT22;18973;48.580;8.912;2023-03-01T15:46:50;7.50;77.70
32534;DHT22;18973;48.580;8.912;2023-03-01T15:49:40;7.50;77.50
32534;DHT22;18973;48.580;8.912;2023-03-01T15:52:32;7.70;77.10
32534;DHT22;18973;48.580;8.912;2023-03-01T15:55:04;7.60;77.40
32534;DHT22;18973;48.580;8.912;2023-03-01T15:57:30;7.50;77.80
32534;DHT22;18973;48.580;8.912;2023-03-01T15:59:56;7.60;77.70
32534;DHT22;18973;48.580;8.912;2023-03-01T16:02:22;7.60;77.60
32534;DHT22;18973;48.580;8.912;2023-03-01T16:04:49;7.80;77.40
32534;DHT22;18973;48.580;8.912;2023-03-01T16:07:15;7.70;77.00
32534;DHT22;18973;48.580;8.912;2023-03-01T16:09:41;7.70;77.50
32534;DHT22;18973;48.580;8.912;2023-03-01T16:12:14;7.40;78.80
32534;DHT22;18973;48.580;8.912;2023-03-01T16:14:40;7.20;78.40
32534;DHT22;18973;48.580;8.912;2023-03-01T16:17:05;7.10;79.10
32534;DHT22;18973;48.580;8.912;2023-03-01T16:19:33;7.20;79.20
32534;DHT22;18973;48.580;8.912;2023-03-01T16:21:59;7.10;79.20
32534;DHT22;18973;48.580;8.912;2023-03-01T16:24:24;7.10;79.20
32534;DHT22;18973;48.580;8.912;2023-03-01T16:26:51;7.00;79.00
32534;DHT22;18973;48.580;8.912;2023-03-01T16:29:17;7.00;79.90
32534;DHT22;18973;48.580;8.912;2023-03-01T16:31:42;7.00;80.20
32534;DHT22;18973;48.580;8.912;2023-03-01T16:34:08;7.00;80.20
32534;DHT22;18973;48.580;8.912;2023-03-01T16:36:34;7.00;80.40
32534;DHT22;18973;48.580;8.912;2023-03-01T16:39:00;7.10;80.10
32534;DHT22;18973;48.580;8.912;2023-03-01T16:41:27;7.00;79.70
32534;DHT22;18973;48.580;8.912;2023-03-01T16:43:53;7.10;79.70
32534;DHT22;18973;48.580;8.912;2023-03-01T16:46:21;7.00;80.00
32534;DHT22;18973;48.580;8.912;2023-03-01T16:48:47;6.90;79.70
32534;DHT22;18973;48.580;8.912;2023-03-01T16:51:14;6.70;80.60
32534;DHT22;18973;48.580;8.912;2023-03-01T16:53:39;6.80;80.20
32534;DHT22;18973;48.580;8.912;2023-03-01T16:56:08;6.60;81.30
32534;DHT22;18973;48.580;8.912;2023-03-01T16:58:35;6.60;81.10
32534;DHT22;18973;48.580;8.912;2023-03-01T17:01:16;6.80;80.80
32534;DHT22;18973;48.580;8.912;2023-03-01T17:03:43;6.50;80.40
32534;DHT22;18973;48.580;8.912;2023-03-01T17:06:11;6.70;81.10
32534;DHT22;18973;48.580;8.912;2023-03-01T17:08:38;6.60;80.90
32534;DHT22;18973;48.580;8.912;2023-03-01T17:11:15;6.40;81.00
32534;DHT22;18973;48.580;8.912;2023-03-01T17:13:41;6.30;81.60
32534;DHT22;18973;48.580;8.912;2023-03-01T17:16:10;6.30;81.80
32534;DHT22;18973;48.580;8.912;2023-03-01T17:18:36;6.20;81.80
32534;DHT22;18973;48.580;8.912;2023-03-01T17:21:03;6.30;81.90
32534;DHT22;18973;48.580;8.912;2023-03-01T17:23:31;6.40;81.40
32534;DHT22;18973;48.580;8.912;2023-03-01T17:25:57;6.30;81.50
32534;DHT22;18973;48.580;8.912;2023-03-01T17:28:25;6.20;82.30
32534;DHT22;18973;48.580;8.912;2023-03-01T17:30:52;6.20;88.40
32534;DHT22;18973;48.580;8.912;2023-03-01T17:33:19;6.40;84.40
32534;DHT22;18973;48.580;8.912;2023-03-01T17:35:45;6.50;83.20
32534;DHT22;18973;48.580;8.912;2023-03-01T17:38:13;6.40;82.70
32534;DHT22;18973;48.580;8.912;2023-03-01T17:40:40;6.20;82.90
32534;DHT22;18973;48.580;8.912;2023-03-01T17:43:07;6.40;82.70
32534;DHT22;18973;48.580;8.912;2023-03-01T17:45:35;6.10;83.10
32534;DHT22;18973;48.580;8.912;2023-03-01T17:48:00;6.10;83.30
32534;DHT22;18973;48.580;8.912;2023-03-01T17:50:26;6.00;83.70
32534;DHT22;18973;48.580;8.912;2023-03-01T17:52:53;5.80;84.80